sensor_id;sensor_type;location;lat;lon;timestamp;P1;durP1;ratioP1;P2;durP2;ratioP2
72379;SDS011;60354;47.798;12.472;2023-04-24T00:00:12;1.60;;;0.85;;
72379;SDS011;60354;47.798;12.472;2023-04-24T00:02:41;1.98;;;0.90;;
72379;SDS011;60354;47.798;12.472;2023-04-24T00:05:11;1.70;;;0.98;;
72379;SDS011;60354;47.798;12.472;2023-04-24T00:07:37;1.25;;;0.85;;
72379;SDS011;60354;47.798;12.472;2023-04-24T00:10:03;1.00;;;0.90;;
72379;SDS011;60354;47.798;12.472;2023-04-24T00:12:29;0.95;;;0.65;;
72379;SDS011;60354;47.798;12.472;2023-04-24T00:14:54;1.58;;;0.65;;
72379;SDS011;60354;47.798;12.472;2023-04-24T00:17:20;1.15;;;0.70;;
72379;SDS011;60354;47.798;12.472;2023-04-24T00:19:46;0.60;;;0.60;;
72379;SDS011;60354;47.798;12.472;2023-04-24T00:22:12;0.73;;;0.70;;
72379;SDS011;60354;47.798;12.472;2023-04-24T00:24:38;0.50;;;0.50;;
72379;SDS011;60354;47.798;12.472;2023-04-24T00:27:04;1.27;;;0.57;;
72379;SDS011;60354;47.798;12.472;2023-04-24T00:29:30;1.25;;;0.60;;
72379;SDS011;60354;47.798;12.472;2023-04-24T00:31:55;0.80;;;0.60;;
72379;SDS011;60354;47.798;12.472;2023-04-24T00:34:21;0.60;;;0.50;;
72379;SDS011;60354;47.798;12.472;2023-04-24T00:36:47;0.50;;;0.50;;
72379;SDS011;60354;47.798;12.472;2023-04-24T00:39:14;1.00;;;0.60;;
72379;SDS011;60354;47.798;12.472;2023-04-24T00:41:40;0.45;;;0.43;;
72379;SDS011;60354;47.798;12.472;2023-04-24T00:44:06;1.63;;;0.60;;
72379;SDS011;60354;47.798;12.472;2023-04-24T00:46:32;1.65;;;0.40;;
72379;SDS011;60354;47.798;12.472;2023-04-24T00:48:58;0.30;;;0.30;;
72379;SDS011;60354;47.798;12.472;2023-04-24T00:51:24;1.83;;;0.50;;
72379;SDS011;60354;47.798;12.472;2023-04-24T00:53:50;1.60;;;0.40;;
72379;SDS011;60354;47.798;12.472;2023-04-24T00:56:16;0.90;;;0.50;;
72379;SDS011;60354;47.798;12.472;2023-04-24T00:58:42;1.45;;;0.60;;
72379;SDS011;60354;47.798;12.472;2023-04-24T01:01:08;1.30;;;0.43;;
72379;SDS011;60354;47.798;12.472;2023-04-24T01:03:34;0.50;;;0.32;;
72379;SDS011;60354;47.798;12.472;2023-04-24T01:06:02;0.75;;;0.45;;
72379;SDS011;60354;47.798;12.472;2023-04-24T01:08:28;0.50;;;0.43;;
72379;SDS011;60354;47.798;12.472;2023-04-24T01:10:55;0.57;;;0.57;;
72379;SDS011;60354;47.798;12.472;2023-04-24T01:13:22;1.42;;;0.50;;
72379;SDS011;60354;47.798;12.472;2023-04-24T01:15:47;0.40;;;0.40;;
72379;SDS011;60354;47.798;12.472;2023-04-24T01:18:13;0.50;;;0.35;;
72379;SDS011;60354;47.798;12.472;2023-04-24T01:20:41;2.28;;;0.60;;
72379;SDS011;60354;47.798;12.472;2023-04-24T01:23:09;3.22;;;0.60;;
72379;SDS011;60354;47.798;12.472;2023-04-24T01:25:35;2.40;;;0.60;;
72379;SDS011;60354;47.798;12.472;2023-04-24T01:28:02;0.50;;;0.50;;
72379;SDS011;60354;47.798;12.472;2023-04-24T01:30:30;0.40;;;0.40;;
72379;SDS011;60354;47.798;12.472;2023-04-24T01:32:56;1.55;;;0.57;;
72379;SDS011;60354;47.798;12.472;2023-04-24T01:35:24;0.93;;;0.50;;
72379;SDS011;60354;47.798;12.472;2023-04-24T01:37:50;0.55;;;0.40;;
72379;SDS011;60354;47.798;12.472;2023-04-24T01:40:15;1.50;;;0.50;;
72379;SDS011;60354;47.798;12.472;2023-04-24T01:42:41;0.73;;;0.50;;
72379;SDS011;60354;47.798;12.472;2023-04-24T01:45:07;0.60;;;0.40;;
72379;SDS011;60354;47.798;12.472;2023-04-24T01:47:36;2.15;;;0.50;;
72379;SDS011;60354;47.798;12.472;2023-04-24T01:50:03;0.75;;;0.40;;
72379;SDS011;60354;47.798;12.472;2023-04-24T01:52:31;1.95;;;0.38;;
72379;SDS011;60354;47.798;12.472;2023-04-24T01:55:04;0.30;;;0.30;;
72379;SDS011;60354;47.798;12.472;2023-04-24T01:57:31;1.00;;;0.40;;
72379;SDS011;60354;47.798;12.472;2023-04-24T01:59:57;1.55;;;0.30;;
72379;SDS011;60354;47.798;12.472;2023-04-24T02:02:22;2.22;;;0.40;;
72379;SDS011;60354;47.798;12.472;2023-04-24T02:04:56;0.40;;;0.40;;
72379;SDS011;60354;47.798;12.472;2023-04-24T02:07:22;0.40;;;0.40;;
72379;SDS011;60354;47.798;12.472;2023-04-24T02:09:47;0.75;;;0.50;;
72379;SDS011;60354;47.798;12.472;2023-04-24T02:12:13;0.80;;;0.47;;
72379;SDS011;60354;47.798;12.472;2023-04-24T02:14:39;1.02;;;0.57;;
72379;SDS011;60354;47.798;12.472;2023-04-24T02:17:05;1.52;;;0.70;;
72379;SDS011;60354;47.798;12.472;2023-04-24T02:19:31;0.60;;;0.60;;
72379;SDS011;60354;47.798;12.472;2023-04-24T02:21:57;0.63;;;0.50;;
72379;SDS011;60354;47.798;12.472;2023-04-24T02:24:22;1.45;;;0.68;;
72379;SDS011;60354;47.798;12.472;2023-04-24T02:26:48;0.75;;;0.52;;
72379;SDS011;60354;47.798;12.472;2023-04-24T02:29:13;1.25;;;0.60;;
72379;SDS011;60354;47.798;12.472;2023-04-24T02:31:40;1.52;;;0.70;;
72379;SDS011;60354;47.798;12.472;2023-04-24T02:34:05;0.60;;;0.50;;
72379;SDS011;60354;47.798;12.472;2023-04-24T02:36:31;0.82;;;0.40;;
72379;SDS011;60354;47.798;12.472;2023-04-24T02:38:56;1.10;;;0.60;;
72379;SDS011;60354;47.798;12.472;2023-04-24T02:41:22;1.42;;;0.80;;
72379;SDS011;60354;47.798;12.472;2023-04-24T02:43:47;0.60;;;0.60;;
72379;SDS011;60354;47.798;12.472;2023-04-24T02:46:13;3.80;;;1.38;;
72379;SDS011;60354;47.798;12.472;2023-04-24T02:48:39;1.17;;;0.50;;
72379;SDS011;60354;47.798;12.472;2023-04-24T02:51:04;0.90;;;0.70;;
72379;SDS011;60354;47.798;12.472;2023-04-24T02:53:31;0.40;;;0.40;;
72379;SDS011;60354;47.798;12.472;2023-04-24T02:55:57;0.90;;;0.40;;
72379;SDS011;60354;47.798;12.472;2023-04-24T02:58:22;1.67;;;0.75;;
72379;SDS011;60354;47.798;12.472;2023-04-24T03:00:47;1.10;;;0.55;;
72379;SDS011;60354;47.798;12.472;2023-04-24T03:03:13;1.33;;;0.50;;
72379;SDS011;60354;47.798;12.472;2023-04-24T03:05:40;1.08;;;0.90;;
72379;SDS011;60354;47.798;12.472;2023-04-24T03:08:05;0.50;;;0.50;;
72379;SDS011;60354;47.798;12.472;2023-04-24T03:10:31;0.70;;;0.50;;
72379;SDS011;60354;47.798;12.472;2023-04-24T03:12:57;6.35;;;0.63;;
72379;SDS011;60354;47.798;12.472;2023-04-24T03:15:22;0.88;;;0.50;;
72379;SDS011;60354;47.798;12.472;2023-04-24T03:17:48;0.57;;;0.57;;
72379;SDS011;60354;47.798;12.472;2023-04-24T03:20:13;0.85;;;0.40;;
72379;SDS011;60354;47.798;12.472;2023-04-24T03:22:39;3.53;;;0.50;;
72379;SDS011;60354;47.798;12.472;2023-04-24T03:25:07;0.75;;;0.50;;
72379;SDS011;60354;47.798;12.472;2023-04-24T03:27:34;1.50;;;0.60;;
72379;SDS011;60354;47.798;12.472;2023-04-24T03:30:04;1.10;;;0.68;;
72379;SDS011;60354;47.798;12.472;2023-04-24T03:32:40;1.13;;;0.70;;
72379;SDS011;60354;47.798;12.472;2023-04-24T03:35:07;0.95;;;0.50;;
72379;SDS011;60354;47.798;12.472;2023-04-24T03:37:33;0.40;;;0.40;;
72379;SDS011;60354;47.798;12.472;2023-04-24T03:40:16;1.15;;;0.63;;
72379;SDS011;60354;47.798;12.472;2023-04-24T03:42:42;0.98;;;0.60;;
72379;SDS011;60354;47.798;12.472;2023-04-24T03:45:08;1.30;;;0.57;;
72379;SDS011;60354;47.798;12.472;2023-04-24T03:47:36;0.50;;;0.50;;
72379;SDS011;60354;47.798;12.472;2023-04-24T03:50:04;1.95;;;0.80;;
72379;SDS011;60354;47.798;12.472;2023-04-24T03:52:31;2.55;;;0.52;;
72379;SDS011;60354;47.798;12.472;2023-04-24T03:54:57;2.90;;;0.70;;
72379;SDS011;60354;47.798;12.472;2023-04-24T03:57:23;2.22;;;0.50;;
72379;SDS011;60354;47.798;12.472;2023-04-24T04:00:02;0.80;;;0.50;;
72379;SDS011;60354;47.798;12.472;2023-04-24T04:02:39;0.50;;;0.50;;
72379;SDS011;60354;47.798;12.472;2023-04-24T04:05:05;0.68;;;0.45;;
72379;SDS011;60354;47.798;12.472;2023-04-24T04:07:31;2.47;;;0.60;;
72379;SDS011;60354;47.798;12.472;2023-04-24T04:09:56;1.08;;;0.60;;
72379;SDS011;60354;47.798;12.472;2023-04-24T04:12:22;0.70;;;0.70;;
72379;SDS011;60354;47.798;12.472;2023-04-24T04:14:48;0.85;;;0.60;;
72379;SDS011;60354;47.798;12.472;2023-04-24T04:17:13;1.83;;;0.70;;
72379;SDS011;60354;47.798;12.472;2023-04-24T04:19:39;1.45;;;0.65;;
72379;SDS011;60354;47.798;12.472;2023-04-24T04:22:05;0.75;;;0.57;;
72379;SDS011;60354;47.798;12.472;2023-04-24T04:24:43;6.13;;;3.72;;
72379;SDS011;60354;47.798;12.472;2023-04-24T04:27:10;5.50;;;2.97;;
72379;SDS011;60354;47.798;12.472;2023-04-24T04:29:46;1.23;;;1.00;;
72379;SDS011;60354;47.798;12.472;2023-04-24T04:32:14;0.90;;;0.60;;
72379;SDS011;60354;47.798;12.472;2023-04-24T04:34:40;1.23;;;0.90;;
72379;SDS011;60354;47.798;12.472;2023-04-24T04:37:09;1.60;;;1.40;;
72379;SDS011;60354;47.798;12.472;2023-04-24T04:39:49;0.75;;;0.60;;
72379;SDS011;60354;47.798;12.472;2023-04-24T04:42:21;2.50;;;1.70;;
72379;SDS011;60354;47.798;12.472;2023-04-24T04:44:48;1.45;;;1.10;;
72379;SDS011;60354;47.798;12.472;2023-04-24T04:47:18;2.30;;;1.40;;
72379;SDS011;60354;47.798;12.472;2023-04-24T04:49:47;1.58;;;1.00;;
72379;SDS011;60354;47.798;12.472;2023-04-24T04:52:19;1.08;;;0.73;;
72379;SDS011;60354;47.798;12.472;2023-04-24T04:54:49;1.13;;;0.70;;
72379;SDS011;60354;47.798;12.472;2023-04-24T04:57:15;0.40;;;0.40;;
72379;SDS011;60354;47.798;12.472;2023-04-24T04:59:40;0.70;;;0.50;;
72379;SDS011;60354;47.798;12.472;2023-04-24T05:02:12;1.35;;;0.70;;
72379;SDS011;60354;47.798;12.472;2023-04-24T05:04:37;0.77;;;0.63;;
72379;SDS011;60354;47.798;12.472;2023-04-24T05:07:03;3.58;;;1.67;;
72379;SDS011;60354;47.798;12.472;2023-04-24T05:09:32;2.75;;;1.30;;
72379;SDS011;60354;47.798;12.472;2023-04-24T05:12:03;1.13;;;0.90;;
72379;SDS011;60354;47.798;12.472;2023-04-24T05:14:33;2.10;;;0.90;;
72379;SDS011;60354;47.798;12.472;2023-04-24T05:16:58;0.70;;;0.70;;
72379;SDS011;60354;47.798;12.472;2023-04-24T05:19:25;1.90;;;1.20;;
72379;SDS011;60354;47.798;12.472;2023-04-24T05:21:51;2.50;;;1.17;;
72379;SDS011;60354;47.798;12.472;2023-04-24T05:24:17;1.73;;;1.10;;
72379;SDS011;60354;47.798;12.472;2023-04-24T05:26:58;2.25;;;1.20;;
72379;SDS011;60354;47.798;12.472;2023-04-24T05:29:30;1.50;;;0.90;;
72379;SDS011;60354;47.798;12.472;2023-04-24T05:31:58;3.92;;;0.70;;
72379;SDS011;60354;47.798;12.472;2023-04-24T05:34:25;1.00;;;0.80;;
72379;SDS011;60354;47.798;12.472;2023-04-24T05:36:54;0.65;;;0.60;;
72379;SDS011;60354;47.798;12.472;2023-04-24T05:39:20;1.85;;;0.80;;
72379;SDS011;60354;47.798;12.472;2023-04-24T05:41:45;0.38;;;0.38;;
72379;SDS011;60354;47.798;12.472;2023-04-24T05:44:11;1.85;;;0.55;;
72379;SDS011;60354;47.798;12.472;2023-04-24T05:46:36;0.65;;;0.50;;
72379;SDS011;60354;47.798;12.472;2023-04-24T05:49:02;0.70;;;0.57;;
72379;SDS011;60354;47.798;12.472;2023-04-24T05:51:28;0.93;;;0.60;;
72379;SDS011;60354;47.798;12.472;2023-04-24T05:53:54;0.98;;;0.60;;
72379;SDS011;60354;47.798;12.472;2023-04-24T05:56:20;1.58;;;0.50;;
72379;SDS011;60354;47.798;12.472;2023-04-24T05:58:47;0.80;;;0.50;;
72379;SDS011;60354;47.798;12.472;2023-04-24T06:01:13;0.88;;;0.80;;
72379;SDS011;60354;47.798;12.472;2023-04-24T06:03:45;1.37;;;0.80;;
72379;SDS011;60354;47.798;12.472;2023-04-24T06:06:11;2.70;;;0.60;;
72379;SDS011;60354;47.798;12.472;2023-04-24T06:08:37;0.60;;;0.60;;
72379;SDS011;60354;47.798;12.472;2023-04-24T06:11:02;3.08;;;0.70;;
72379;SDS011;60354;47.798;12.472;2023-04-24T06:13:29;1.40;;;0.90;;
72379;SDS011;60354;47.798;12.472;2023-04-24T06:16:13;0.88;;;0.68;;
72379;SDS011;60354;47.798;12.472;2023-04-24T06:18:43;1.88;;;1.00;;
72379;SDS011;60354;47.798;12.472;2023-04-24T06:21:13;0.95;;;0.60;;
72379;SDS011;60354;47.798;12.472;2023-04-24T06:23:38;1.65;;;0.40;;
72379;SDS011;60354;47.798;12.472;2023-04-24T06:26:04;0.55;;;0.50;;
72379;SDS011;60354;47.798;12.472;2023-04-24T06:28:30;1.02;;;0.40;;
72379;SDS011;60354;47.798;12.472;2023-04-24T06:30:57;0.50;;;0.50;;
72379;SDS011;60354;47.798;12.472;2023-04-24T06:33:22;0.98;;;0.50;;
72379;SDS011;60354;47.798;12.472;2023-04-24T06:35:48;0.73;;;0.68;;
72379;SDS011;60354;47.798;12.472;2023-04-24T06:38:13;1.33;;;0.50;;
72379;SDS011;60354;47.798;12.472;2023-04-24T06:40:39;1.17;;;0.50;;
72379;SDS011;60354;47.798;12.472;2023-04-24T06:43:04;1.75;;;0.50;;
72379;SDS011;60354;47.798;12.472;2023-04-24T06:45:31;0.85;;;0.40;;
72379;SDS011;60354;47.798;12.472;2023-04-24T06:47:56;1.20;;;0.50;;
72379;SDS011;60354;47.798;12.472;2023-04-24T06:50:22;0.93;;;0.50;;
72379;SDS011;60354;47.798;12.472;2023-04-24T06:52:47;1.20;;;0.60;;
72379;SDS011;60354;47.798;12.472;2023-04-24T06:55:13;1.63;;;0.70;;
72379;SDS011;60354;47.798;12.472;2023-04-24T06:57:40;0.70;;;0.45;;
72379;SDS011;60354;47.798;12.472;2023-04-24T07:00:06;1.02;;;0.40;;
72379;SDS011;60354;47.798;12.472;2023-04-24T07:02:32;0.70;;;0.50;;
72379;SDS011;60354;47.798;12.472;2023-04-24T07:04:57;0.43;;;0.43;;
72379;SDS011;60354;47.798;12.472;2023-04-24T07:07:23;0.73;;;0.50;;
72379;SDS011;60354;47.798;12.472;2023-04-24T07:09:48;0.77;;;0.47;;
72379;SDS011;60354;47.798;12.472;2023-04-24T07:12:15;2.00;;;0.40;;
72379;SDS011;60354;47.798;12.472;2023-04-24T07:14:42;0.43;;;0.40;;
72379;SDS011;60354;47.798;12.472;2023-04-24T07:17:07;0.20;;;0.20;;
72379;SDS011;60354;47.798;12.472;2023-04-24T07:19:33;0.70;;;0.70;;
72379;SDS011;60354;47.798;12.472;2023-04-24T07:22:00;2.58;;;0.73;;
72379;SDS011;60354;47.798;12.472;2023-04-24T07:24:26;0.60;;;0.50;;
72379;SDS011;60354;47.798;12.472;2023-04-24T07:26:52;0.43;;;0.32;;
72379;SDS011;60354;47.798;12.472;2023-04-24T07:29:20;0.82;;;0.60;;
72379;SDS011;60354;47.798;12.472;2023-04-24T07:31:46;1.45;;;0.60;;
72379;SDS011;60354;47.798;12.472;2023-04-24T07:34:12;0.50;;;0.40;;
72379;SDS011;60354;47.798;12.472;2023-04-24T07:36:37;0.38;;;0.38;;
72379;SDS011;60354;47.798;12.472;2023-04-24T07:39:06;0.73;;;0.20;;
72379;SDS011;60354;47.798;12.472;2023-04-24T07:41:32;0.77;;;0.20;;
72379;SDS011;60354;47.798;12.472;2023-04-24T07:43:58;0.82;;;0.30;;
72379;SDS011;60354;47.798;12.472;2023-04-24T07:46:23;0.25;;;0.25;;
72379;SDS011;60354;47.798;12.472;2023-04-24T07:48:49;2.58;;;0.30;;
72379;SDS011;60354;47.798;12.472;2023-04-24T07:51:15;1.20;;;0.30;;
72379;SDS011;60354;47.798;12.472;2023-04-24T07:53:41;0.95;;;0.38;;
72379;SDS011;60354;47.798;12.472;2023-04-24T07:56:06;0.30;;;0.30;;
72379;SDS011;60354;47.798;12.472;2023-04-24T07:58:32;0.20;;;0.20;;
72379;SDS011;60354;47.798;12.472;2023-04-24T08:00:58;0.20;;;0.20;;
72379;SDS011;60354;47.798;12.472;2023-04-24T08:03:23;1.02;;;0.50;;
72379;SDS011;60354;47.798;12.472;2023-04-24T08:05:49;0.50;;;0.40;;
72379;SDS011;60354;47.798;12.472;2023-04-24T08:08:16;0.20;;;0.20;;
72379;SDS011;60354;47.798;12.472;2023-04-24T08:10:41;0.65;;;0.30;;
72379;SDS011;60354;47.798;12.472;2023-04-24T08:13:07;0.60;;;0.30;;
72379;SDS011;60354;47.798;12.472;2023-04-24T08:15:32;0.30;;;0.30;;
72379;SDS011;60354;47.798;12.472;2023-04-24T08:17:58;0.35;;;0.30;;
72379;SDS011;60354;47.798;12.472;2023-04-24T08:20:23;0.80;;;0.40;;
72379;SDS011;60354;47.798;12.472;2023-04-24T08:22:49;0.50;;;0.30;;
72379;SDS011;60354;47.798;12.472;2023-04-24T08:25:15;0.28;;;0.20;;
72379;SDS011;60354;47.798;12.472;2023-04-24T08:27:40;0.70;;;0.70;;
72379;SDS011;60354;47.798;12.472;2023-04-24T08:30:06;0.38;;;0.38;;
72379;SDS011;60354;47.798;12.472;2023-04-24T08:32:32;1.08;;;0.50;;
72379;SDS011;60354;47.798;12.472;2023-04-24T08:34:58;0.60;;;0.50;;
72379;SDS011;60354;47.798;12.472;2023-04-24T08:37:25;0.65;;;0.45;;
72379;SDS011;60354;47.798;12.472;2023-04-24T08:39:51;0.40;;;0.30;;
72379;SDS011;60354;47.798;12.472;2023-04-24T08:42:18;0.38;;;0.38;;
72379;SDS011;60354;47.798;12.472;2023-04-24T08:44:44;1.40;;;0.60;;
72379;SDS011;60354;47.798;12.472;2023-04-24T08:47:11;1.70;;;0.98;;
72379;SDS011;60354;47.798;12.472;2023-04-24T08:49:37;1.30;;;0.80;;
72379;SDS011;60354;47.798;12.472;2023-04-24T08:52:03;0.30;;;0.30;;
72379;SDS011;60354;47.798;12.472;2023-04-24T08:54:31;1.80;;;0.38;;
72379;SDS011;60354;47.798;12.472;2023-04-24T08:57:00;0.70;;;0.57;;
72379;SDS011;60354;47.798;12.472;2023-04-24T08:59:30;1.95;;;0.40;;
72379;SDS011;60354;47.798;12.472;2023-04-24T09:01:56;0.28;;;0.20;;
72379;SDS011;60354;47.798;12.472;2023-04-24T09:04:23;0.35;;;0.35;;
72379;SDS011;60354;47.798;12.472;2023-04-24T09:06:54;0.20;;;0.20;;
72379;SDS011;60354;47.798;12.472;2023-04-24T09:09:21;0.52;;;0.30;;
72379;SDS011;60354;47.798;12.472;2023-04-24T09:11:49;0.80;;;0.38;;
72379;SDS011;60354;47.798;12.472;2023-04-24T09:14:15;1.52;;;0.40;;
72379;SDS011;60354;47.798;12.472;2023-04-24T09:16:41;0.40;;;0.30;;
72379;SDS011;60354;47.798;12.472;2023-04-24T09:19:07;3.50;;;0.40;;
72379;SDS011;60354;47.798;12.472;2023-04-24T09:21:33;1.58;;;0.38;;
72379;SDS011;60354;47.798;12.472;2023-04-24T09:24:00;0.50;;;0.30;;
72379;SDS011;60354;47.798;12.472;2023-04-24T09:26:31;0.60;;;0.40;;
72379;SDS011;60354;47.798;12.472;2023-04-24T09:29:00;0.73;;;0.32;;
72379;SDS011;60354;47.798;12.472;2023-04-24T09:31:29;1.63;;;0.32;;
72379;SDS011;60354;47.798;12.472;2023-04-24T09:33:59;0.98;;;0.35;;
72379;SDS011;60354;47.798;12.472;2023-04-24T09:36:29;1.17;;;0.40;;
72379;SDS011;60354;47.798;12.472;2023-04-24T09:38:57;0.55;;;0.55;;
72379;SDS011;60354;47.798;12.472;2023-04-24T09:41:23;0.50;;;0.40;;
72379;SDS011;60354;47.798;12.472;2023-04-24T09:43:49;1.80;;;0.30;;
72379;SDS011;60354;47.798;12.472;2023-04-24T09:46:15;1.38;;;0.80;;
72379;SDS011;60354;47.798;12.472;2023-04-24T09:48:43;2.08;;;1.15;;
72379;SDS011;60354;47.798;12.472;2023-04-24T09:51:09;1.27;;;0.90;;
72379;SDS011;60354;47.798;12.472;2023-04-24T09:53:37;1.40;;;0.90;;
72379;SDS011;60354;47.798;12.472;2023-04-24T09:56:10;1.47;;;0.67;;
72379;SDS011;60354;47.798;12.472;2023-04-24T09:58:38;1.30;;;0.90;;
72379;SDS011;60354;47.798;12.472;2023-04-24T10:01:04;0.82;;;0.70;;
72379;SDS011;60354;47.798;12.472;2023-04-24T10:03:30;0.85;;;0.63;;
72379;SDS011;60354;47.798;12.472;2023-04-24T10:06:00;1.08;;;0.90;;
72379;SDS011;60354;47.798;12.472;2023-04-24T10:08:27;1.63;;;0.82;;
72379;SDS011;60354;47.798;12.472;2023-04-24T10:10:59;1.33;;;0.70;;
72379;SDS011;60354;47.798;12.472;2023-04-24T10:13:25;1.30;;;0.95;;
72379;SDS011;60354;47.798;12.472;2023-04-24T10:15:51;0.70;;;0.70;;
72379;SDS011;60354;47.798;12.472;2023-04-24T10:18:16;1.02;;;0.70;;
72379;SDS011;60354;47.798;12.472;2023-04-24T10:20:43;1.58;;;0.73;;
72379;SDS011;60354;47.798;12.472;2023-04-24T10:23:10;3.08;;;0.80;;
72379;SDS011;60354;47.798;12.472;2023-04-24T10:25:36;0.70;;;0.60;;
72379;SDS011;60354;47.798;12.472;2023-04-24T10:28:02;3.05;;;0.73;;
72379;SDS011;60354;47.798;12.472;2023-04-24T10:30:30;1.30;;;0.85;;
72379;SDS011;60354;47.798;12.472;2023-04-24T10:33:03;1.08;;;0.80;;
72379;SDS011;60354;47.798;12.472;2023-04-24T10:35:31;1.55;;;0.98;;
72379;SDS011;60354;47.798;12.472;2023-04-24T10:38:01;1.42;;;1.00;;
72379;SDS011;60354;47.798;12.472;2023-04-24T10:40:31;2.00;;;0.90;;
72379;SDS011;60354;47.798;12.472;2023-04-24T10:42:59;0.95;;;0.70;;
72379;SDS011;60354;47.798;12.472;2023-04-24T10:45:27;1.00;;;0.73;;
72379;SDS011;60354;47.798;12.472;2023-04-24T10:48:03;1.00;;;0.80;;
72379;SDS011;60354;47.798;12.472;2023-04-24T10:53:12;0.73;;;0.70;;
72379;SDS011;60354;47.798;12.472;2023-04-24T10:55:49;1.08;;;0.90;;
72379;SDS011;60354;47.798;12.472;2023-04-24T10:58:16;1.60;;;0.90;;
72379;SDS011;60354;47.798;12.472;2023-04-24T11:00:55;1.77;;;0.77;;
72379;SDS011;60354;47.798;12.472;2023-04-24T11:03:23;0.98;;;0.82;;
72379;SDS011;60354;47.798;12.472;2023-04-24T11:09:01;0.90;;;0.77;;
72379;SDS011;60354;47.798;12.472;2023-04-24T11:11:23;1.48;;;0.80;;
72379;SDS011;60354;47.798;12.472;2023-04-24T11:16:20;1.00;;;0.80;;
72379;SDS011;60354;47.798;12.472;2023-04-24T11:19:00;0.98;;;0.80;;
72379;SDS011;60354;47.798;12.472;2023-04-24T11:22:03;1.30;;;0.80;;
72379;SDS011;60354;47.798;12.472;2023-04-24T11:34:45;0.45;;;0.45;;
72379;SDS011;60354;47.798;12.472;2023-04-24T11:37:11;0.93;;;0.65;;
72379;SDS011;60354;47.798;12.472;2023-04-24T11:39:38;0.98;;;0.80;;
72379;SDS011;60354;47.798;12.472;2023-04-24T11:42:03;1.15;;;0.60;;
72379;SDS011;60354;47.798;12.472;2023-04-24T11:44:31;0.77;;;0.70;;
72379;SDS011;60354;47.798;12.472;2023-04-24T11:46:59;1.50;;;0.90;;
72379;SDS011;60354;47.798;12.472;2023-04-24T11:49:24;0.90;;;0.80;;
72379;SDS011;60354;47.798;12.472;2023-04-24T11:51:50;1.52;;;0.80;;
72379;SDS011;60354;47.798;12.472;2023-04-24T11:54:19;2.03;;;0.80;;
72379;SDS011;60354;47.798;12.472;2023-04-24T11:56:46;1.05;;;0.80;;
72379;SDS011;60354;47.798;12.472;2023-04-24T11:59:12;2.78;;;0.90;;
72379;SDS011;60354;47.798;12.472;2023-04-24T12:01:44;3.33;;;0.95;;
72379;SDS011;60354;47.798;12.472;2023-04-24T12:04:10;4.68;;;0.98;;
72379;SDS011;60354;47.798;12.472;2023-04-24T12:06:36;1.77;;;0.80;;
72379;SDS011;60354;47.798;12.472;2023-04-24T12:09:02;2.15;;;1.00;;
72379;SDS011;60354;47.798;12.472;2023-04-24T12:11:27;3.15;;;1.10;;
72379;SDS011;60354;47.798;12.472;2023-04-24T12:13:53;20.52;;;1.60;;
72379;SDS011;60354;47.798;12.472;2023-04-24T12:16:18;2.28;;;0.85;;
72379;SDS011;60354;47.798;12.472;2023-04-24T12:18:44;3.47;;;0.93;;
72379;SDS011;60354;47.798;12.472;2023-04-24T12:21:20;1.17;;;0.88;;
72379;SDS011;60354;47.798;12.472;2023-04-24T12:23:47;1.00;;;0.80;;
72379;SDS011;60354;47.798;12.472;2023-04-24T12:26:17;1.50;;;0.98;;
72379;SDS011;60354;47.798;12.472;2023-04-24T12:28:45;3.03;;;1.10;;
72379;SDS011;60354;47.798;12.472;2023-04-24T12:31:13;2.85;;;0.98;;
72379;SDS011;60354;47.798;12.472;2023-04-24T12:33:38;1.90;;;0.90;;
72379;SDS011;60354;47.798;12.472;2023-04-24T12:36:04;3.20;;;0.90;;
72379;SDS011;60354;47.798;12.472;2023-04-24T12:38:31;1.67;;;0.88;;
72379;SDS011;60354;47.798;12.472;2023-04-24T12:41:23;1.83;;;1.10;;
72379;SDS011;60354;47.798;12.472;2023-04-24T12:43:52;1.13;;;0.90;;
72379;SDS011;60354;47.798;12.472;2023-04-24T12:46:18;1.13;;;0.70;;
72379;SDS011;60354;47.798;12.472;2023-04-24T12:48:44;0.88;;;0.80;;
72379;SDS011;60354;47.798;12.472;2023-04-24T12:51:09;1.55;;;0.98;;
72379;SDS011;60354;47.798;12.472;2023-04-24T12:53:35;1.10;;;0.90;;
72379;SDS011;60354;47.798;12.472;2023-04-24T12:56:01;2.30;;;0.80;;
72379;SDS011;60354;47.798;12.472;2023-04-24T12:58:26;2.85;;;1.10;;
72379;SDS011;60354;47.798;12.472;2023-04-24T13:00:52;1.33;;;0.80;;
72379;SDS011;60354;47.798;12.472;2023-04-24T13:03:18;1.73;;;1.33;;
72379;SDS011;60354;47.798;12.472;2023-04-24T13:05:44;1.92;;;0.80;;
72379;SDS011;60354;47.798;12.472;2023-04-24T13:08:09;0.70;;;0.70;;
72379;SDS011;60354;47.798;12.472;2023-04-24T13:10:35;1.35;;;0.93;;
72379;SDS011;60354;47.798;12.472;2023-04-24T13:13:01;2.60;;;1.00;;
72379;SDS011;60354;47.798;12.472;2023-04-24T13:15:26;1.50;;;1.00;;
72379;SDS011;60354;47.798;12.472;2023-04-24T13:17:52;3.92;;;2.00;;
72379;SDS011;60354;47.798;12.472;2023-04-24T13:20:17;5.03;;;2.25;;
72379;SDS011;60354;47.798;12.472;2023-04-24T13:22:43;2.60;;;1.27;;
72379;SDS011;60354;47.798;12.472;2023-04-24T13:25:08;1.98;;;1.30;;
72379;SDS011;60354;47.798;12.472;2023-04-24T13:27:35;1.92;;;1.00;;
72379;SDS011;60354;47.798;12.472;2023-04-24T13:30:00;3.33;;;1.38;;
72379;SDS011;60354;47.798;12.472;2023-04-24T13:32:26;1.55;;;0.95;;
72379;SDS011;60354;47.798;12.472;2023-04-24T13:34:52;1.45;;;0.70;;
72379;SDS011;60354;47.798;12.472;2023-04-24T13:37:18;0.73;;;0.70;;
72379;SDS011;60354;47.798;12.472;2023-04-24T13:39:43;1.67;;;0.80;;
72379;SDS011;60354;47.798;12.472;2023-04-24T13:42:09;1.52;;;0.80;;
72379;SDS011;60354;47.798;12.472;2023-04-24T13:44:34;0.75;;;0.70;;
72379;SDS011;60354;47.798;12.472;2023-04-24T13:47:00;1.55;;;1.00;;
72379;SDS011;60354;47.798;12.472;2023-04-24T13:49:26;1.40;;;0.90;;
72379;SDS011;60354;47.798;12.472;2023-04-24T13:51:52;2.13;;;0.90;;
72379;SDS011;60354;47.798;12.472;2023-04-24T13:54:19;1.80;;;0.90;;
72379;SDS011;60354;47.798;12.472;2023-04-24T13:56:44;2.50;;;0.90;;
72379;SDS011;60354;47.798;12.472;2023-04-24T13:59:11;0.70;;;0.70;;
72379;SDS011;60354;47.798;12.472;2023-04-24T14:01:37;1.00;;;0.70;;
72379;SDS011;60354;47.798;12.472;2023-04-24T14:04:03;0.80;;;0.60;;
72379;SDS011;60354;47.798;12.472;2023-04-24T14:06:28;4.10;;;1.60;;
72379;SDS011;60354;47.798;12.472;2023-04-24T14:08:54;1.65;;;1.10;;
72379;SDS011;60354;47.798;12.472;2023-04-24T14:11:20;1.25;;;0.60;;
72379;SDS011;60354;47.798;12.472;2023-04-24T14:13:45;1.10;;;0.68;;
72379;SDS011;60354;47.798;12.472;2023-04-24T14:16:11;1.48;;;1.17;;
72379;SDS011;60354;47.798;12.472;2023-04-24T14:18:37;2.47;;;0.80;;
72379;SDS011;60354;47.798;12.472;2023-04-24T14:21:03;0.70;;;0.70;;
72379;SDS011;60354;47.798;12.472;2023-04-24T14:23:29;0.82;;;0.70;;
72379;SDS011;60354;47.798;12.472;2023-04-24T14:25:54;1.77;;;0.90;;
72379;SDS011;60354;47.798;12.472;2023-04-24T14:28:20;1.73;;;1.00;;
72379;SDS011;60354;47.798;12.472;2023-04-24T14:30:49;1.70;;;1.00;;
72379;SDS011;60354;47.798;12.472;2023-04-24T14:33:15;1.30;;;0.90;;
72379;SDS011;60354;47.798;12.472;2023-04-24T14:35:40;2.45;;;0.88;;
72379;SDS011;60354;47.798;12.472;2023-04-24T14:38:09;1.98;;;1.27;;
72379;SDS011;60354;47.798;12.472;2023-04-24T14:40:35;2.10;;;1.40;;
72379;SDS011;60354;47.798;12.472;2023-04-24T14:43:01;2.28;;;1.20;;
72379;SDS011;60354;47.798;12.472;2023-04-24T14:45:27;2.63;;;1.20;;
72379;SDS011;60354;47.798;12.472;2023-04-24T14:47:53;2.00;;;0.90;;
72379;SDS011;60354;47.798;12.472;2023-04-24T14:50:18;2.35;;;1.42;;